Carol Coles — WDC8764 — position and weather

sailwx.info

Track history (hours):
 
Tides and Currents Weather Stations Pressure Air Temp Water Temp Dewpoint Dewpoint Depression Visibility Wind Speed Wind Dir Waves Ship Positions

Carol Coles

Owner: Carol Coles LLC, Newington, NH. More information available from US FCC via Universal Licensing System and Coast Guard Vessel Documentation Center.

Last reported at 2017-Aug-15 01:53 UTC. Time now 2017-Aug-20 22:43 UTC.
Position N 42°31' W 069°02'.

Length 24 m.

Type: Fishing. MMSI: 367092680.

Date/timePositionNaut miles runAvg speedWind from/ knotsBaromVisibWave heightAir tempDewpointWater temp
2017-Aug-15 01:53N 42°31' W 069°02'24 8.3
2017-Aug-14 22:57N 42°41' W 069°32'4 8.7
2017-Aug-14 22:30N 42°42' W 069°37'4 8.4
2017-Aug-14 21:59N 42°44' W 069°43'5 8.1
2017-Aug-14 21:19N 42°46' W 069°50'3 8.5
2017-Aug-14 21:00N 42°47' W 069°53'4 8.7
2017-Aug-14 20:30N 42°49' W 069°58'  
2017-Aug-11 07:33N 42°59' W 070°22'1 8.5
2017-Aug-11 07:25N 42°59' W 070°21'  
Track history (hours):
 
Tides and Currents Weather Stations Pressure Air Temp Water Temp Dewpoint Dewpoint Depression Visibility Wind Speed Wind Dir Waves Ship Positions

Carol Coles

Owner: Carol Coles LLC, Newington, NH. More information available from US FCC via Universal Licensing System and Coast Guard Vessel Documentation Center.

Last reported at 2017-Aug-15 01:53 UTC. Time now 2017-Aug-20 22:43 UTC.
Position N 42°31' W 069°02'.

Length 24 m.

Type: Fishing. MMSI: 367092680.

Date/timePositionNaut miles runAvg speedWind from/ knotsBaromVisibWave heightAir tempDewpointWater temp
2017-Aug-15 01:53N 42°31' W 069°02'24 8.3
2017-Aug-14 22:57N 42°41' W 069°32'4 8.7
2017-Aug-14 22:30N 42°42' W 069°37'4 8.4
2017-Aug-14 21:59N 42°44' W 069°43'5 8.1
2017-Aug-14 21:19N 42°46' W 069°50'3 8.5
2017-Aug-14 21:00N 42°47' W 069°53'4 8.7
2017-Aug-14 20:30N 42°49' W 069°58'  
2017-Aug-11 07:33N 42°59' W 070°22'1 8.5
2017-Aug-11 07:25N 42°59' W 070°21'  

Dump ship's entire track history